Destinations Rovaniemi Airport

Rovaniemi Airport (EFRO / RVN)

Flights to Rovaniemi Airport

Flight number From ETE Dispatch
SPY-2506 EGPH Edinburgh Airport 03:05

Flights from Rovaniemi Airport

Flight number To ETE Dispatch
SPY-2507 EGPH Edinburgh Airport 03:05
About

Rovaniemi Airport facts

Rovaniemi Airport is located in Rovaniemi at an elevation of 195.7 meters or 642 feet.

Currently, Speedy Airlines serves 2 flights to and from Rovaniemi Airport.

Detailed airport info

Route map

Weather

Current weather

METAR

METAR

Metar data retrieved Sunday, 21 July 2024 at 19:55 UTC

EFRO 211920Z AUTO 15005KT CAVOK 21/08 Q1016
Wind Temperature
5 kt 21c